Time;durP1;ratioP1;P1;durP2;ratioP2;P2;SDS_P1;SDS_P2;PMS_P1;PMS_P2;Temp;Humidity;BMP_temperature;BMP_pressure;BME280_temperature;BME280_humidity;BME280_pressure;Samples;Min_cycle;Max_cycle;Signal;HPM_P1;HPM_P2
2022/04/04 00:00:18;;;;;;;15.52;8.85;;;;;;;3.80;96.51;101849.00;5008279;28;20438;-64
2022/04/04 00:02:43;;;;;;;12.65;8.00;;;;;;;3.82;96.83;101846.38;4985388;28;20110;-64
2022/04/04 00:05:10;;;;;;;13.63;8.57;;;;;;;3.84;96.94;101842.03;4973573;28;20032;-66
2022/04/04 00:07:36;;;;;;;13.45;7.72;;;;;;;3.82;96.88;101838.53;4992426;28;20548;-65
2022/04/04 00:10:02;;;;;;;14.93;7.60;;;;;;;3.82;97.03;101826.28;4992550;28;20038;-65
2022/04/04 00:12:27;;;;;;;15.65;7.55;;;;;;;3.83;97.38;101822.78;4991414;28;20482;-64
2022/04/04 00:14:52;;;;;;;15.52;7.50;;;;;;;3.84;97.50;101816.69;4988650;28;20053;-65
2022/04/04 00:17:18;;;;;;;11.82;7.35;;;;;;;3.84;97.73;101814.06;4989447;28;20036;-64
2022/04/04 00:19:45;;;;;;;11.30;7.50;;;;;;;3.85;97.91;101807.97;4987686;28;20030;-65
2022/04/04 00:22:10;;;;;;;10.70;6.85;;;;;;;3.86;98.02;101806.19;4986642;28;20050;-65
2022/04/04 00:24:36;;;;;;;12.25;7.20;;;;;;;3.86;97.71;101800.94;4988958;28;20406;-63
2022/04/04 00:27:01;;;;;;;13.23;7.60;;;;;;;3.88;98.18;101800.06;4993071;28;20041;-66
2022/04/04 00:29:27;;;;;;;12.98;7.13;;;;;;;3.89;98.16;101796.59;4990042;28;20030;-65
2022/04/04 00:31:53;;;;;;;14.07;7.22;;;;;;;3.92;98.37;101780.84;4991301;28;20044;-66
2022/04/04 00:34:18;;;;;;;21.60;7.60;;;;;;;3.94;98.41;101786.97;4988733;28;20393;-65
2022/04/04 00:36:45;;;;;;;16.42;7.13;;;;;;;3.96;98.57;101788.72;4972196;28;20038;-64
2022/04/04 00:39:11;;;;;;;12.77;6.88;;;;;;;3.98;98.77;101779.09;4992109;28;20113;-64
2022/04/04 00:41:37;;;;;;;12.30;6.30;;;;;;;3.95;98.77;101774.72;4984320;28;20030;-66
2022/04/04 00:44:03;;;;;;;13.70;6.80;;;;;;;3.96;98.83;101773.00;4988259;28;20065;-65
2022/04/04 00:46:29;;;;;;;12.23;6.30;;;;;;;4.01;98.95;101766.00;4989738;28;20038;-64
2022/04/04 00:48:55;;;;;;;11.52;6.63;;;;;;;4.02;98.92;101765.97;4988791;28;21798;-65
2022/04/04 00:51:21;;;;;;;14.40;6.60;;;;;;;4.03;98.98;101762.50;4985349;28;20120;-64
2022/04/04 00:53:46;;;;;;;14.20;6.25;;;;;;;4.03;99.13;101757.25;4988982;28;20037;-65
2022/04/04 00:56:12;;;;;;;11.57;6.18;;;;;;;4.07;99.22;101752.88;4991955;28;20038;-64
2022/04/04 00:58:39;;;;;;;11.98;5.93;;;;;;;4.08;99.39;101742.38;4990949;28;20406;-64
2022/04/04 01:01:05;;;;;;;11.85;5.80;;;;;;;4.10;99.59;101739.75;5007685;28;20473;-65
2022/04/04 01:03:31;;;;;;;15.05;6.07;;;;;;;4.16;99.55;101731.00;4990681;28;20038;-64
2022/04/04 01:05:58;;;;;;;10.40;5.75;;;;;;;4.20;99.80;101733.59;4987764;28;20037;-66
2022/04/04 01:08:24;;;;;;;11.55;6.15;;;;;;;4.25;99.84;101718.72;4991534;28;20030;-66
2022/04/04 01:10:50;;;;;;;13.07;5.88;;;;;;;4.29;99.81;101730.06;4987648;28;20034;-65
2022/04/04 01:13:16;;;;;;;10.02;5.95;;;;;;;4.28;99.87;101709.97;4989355;28;20031;-65
2022/04/04 01:15:41;;;;;;;11.00;5.63;;;;;;;4.30;100.00;101710.84;4989646;28;20528;-64
2022/04/04 01:18:09;;;;;;;11.98;5.43;;;;;;;4.34;99.91;101704.69;4989572;28;20457;-64
2022/04/04 01:20:35;;;;;;;13.20;6.32;;;;;;;4.36;100.00;101702.06;5004236;28;20054;-64
2022/04/04 01:23:01;;;;;;;11.88;6.13;;;;;;;4.38;100.00;101695.06;4996375;28;20030;-65
2022/04/04 01:25:29;;;;;;;12.60;6.18;;;;;;;4.40;100.00;101688.94;4996428;28;20466;-66
2022/04/04 01:27:55;;;;;;;10.82;5.82;;;;;;;4.44;100.00;101689.78;4994820;28;20062;-64
2022/04/04 01:30:22;;;;;;;13.20;5.85;;;;;;;4.47;100.00;101683.66;4994001;28;20117;-65
2022/04/04 01:32:49;;;;;;;13.20;5.95;;;;;;;4.53;100.00;101673.97;4971059;28;20512;-66
2022/04/04 01:35:19;;;;;;;13.00;6.28;;;;;;;4.54;99.69;101667.88;4991585;28;20101;-64
2022/04/04 01:37:45;;;;;;;14.43;6.32;;;;;;;4.60;99.79;101666.94;4990568;28;20444;-65
2022/04/04 01:40:10;;;;;;;20.25;7.40;;;;;;;4.59;99.11;101652.06;4990485;28;20061;-65
2022/04/04 01:42:37;;;;;;;11.05;5.72;;;;;;;4.62;98.80;101652.06;4995868;28;20505;-66
2022/04/04 01:45:04;;;;;;;12.35;6.45;;;;;;;4.62;99.20;101653.81;4996206;28;20030;-66
2022/04/04 01:47:30;;;;;;;12.57;6.80;;;;;;;4.67;99.12;101641.56;4988049;28;20112;-66
2022/04/04 01:49:55;;;;;;;13.85;7.03;;;;;;;4.67;98.17;101636.31;4990300;28;20035;-64
2022/04/04 01:52:20;;;;;;;11.23;6.60;;;;;;;4.65;97.99;101622.31;4993567;28;20060;-63
2022/04/04 01:54:46;;;;;;;14.48;7.63;;;;;;;4.71;97.83;101635.41;5010571;28;20230;-65
2022/04/04 01:57:12;;;;;;;17.50;7.57;;;;;;;4.67;97.61;101626.69;5002052;28;20062;-64
2022/04/04 01:59:37;;;;;;;11.70;6.72;;;;;;;4.67;97.60;101617.94;4991394;28;20034;-64
2022/04/04 02:02:03;;;;;;;16.13;7.55;;;;;;;4.65;97.91;101611.81;4992639;28;20026;-65
2022/04/04 02:04:29;;;;;;;14.02;8.02;;;;;;;4.64;98.10;101615.31;4995309;28;20038;-64
2022/04/04 02:06:54;;;;;;;15.07;7.60;;;;;;;4.62;97.86;101611.84;5001480;28;20034;-64
2022/04/04 02:09:20;;;;;;;18.33;7.93;;;;;;;4.64;97.95;101596.97;4988045;28;20049;-64
2022/04/04 02:11:45;;;;;;;13.32;8.60;;;;;;;4.67;97.60;101595.19;4986742;28;20645;-64
2022/04/04 02:14:10;;;;;;;18.10;8.02;;;;;;;4.69;97.32;101588.19;4991403;28;20038;-64
2022/04/04 02:16:36;;;;;;;15.10;7.32;;;;;;;4.73;97.15;101578.50;4989704;28;20039;-66
2022/04/04 02:19:01;;;;;;;17.10;8.00;;;;;;;4.73;96.92;101584.66;5003412;28;20045;-66
2022/04/04 02:21:27;;;;;;;11.95;7.32;;;;;;;4.73;97.22;101571.53;4991423;28;20046;-65
2022/04/04 02:23:53;;;;;;;15.73;7.70;;;;;;;4.75;97.51;101563.63;4983227;28;20142;-64
2022/04/04 02:26:19;;;;;;;14.63;7.32;;;;;;;4.79;96.62;101557.47;4985888;28;20125;-65
2022/04/04 02:28:44;;;;;;;14.60;7.75;;;;;;;4.80;96.84;101553.13;4993528;28;20046;-66
2022/04/04 02:31:09;;;;;;;14.13;7.72;;;;;;;4.85;96.79;101538.19;4992963;28;20090;-66
2022/04/04 02:33:35;;;;;;;13.27;7.50;;;;;;;4.85;97.06;101546.06;4989997;28;20033;-66
2022/04/04 02:36:00;;;;;;;17.08;7.07;;;;;;;4.86;97.47;101542.53;4982074;28;20445;-65
2022/04/04 02:38:27;;;;;;;13.30;7.68;;;;;;;4.84;97.52;101524.19;4987060;28;20030;-65
2022/04/04 02:40:55;;;;;;;13.48;8.05;;;;;;;4.86;96.96;101517.19;4993849;28;20095;-64
2022/04/04 02:43:21;;;;;;;15.98;7.82;;;;;;;4.87;97.60;101520.66;4993655;28;20084;-65
2022/04/04 02:45:46;;;;;;;16.40;8.05;;;;;;;4.92;96.81;101516.22;4990918;28;20038;-65
2022/04/04 02:48:12;;;;;;;14.77;7.80;;;;;;;4.92;97.00;101506.63;4982688;28;20024;-65
2022/04/04 02:50:37;;;;;;;16.60;9.13;;;;;;;4.95;96.61;101499.59;4984389;28;20030;-66
2022/04/04 02:53:03;;;;;;;16.30;8.20;;;;;;;4.97;97.01;101482.94;4990235;28;20115;-64
2022/04/04 02:58:14;;;;;;;14.57;8.23;;;;;;;5.06;96.14;101479.34;4985998;28;20085;-64
2022/04/04 03:00:40;;;;;;;15.10;8.43;;;;;;;5.08;95.61;101462.69;4992898;28;20034;-64
2022/04/04 03:03:05;;;;;;;17.90;8.20;;;;;;;5.13;95.82;101461.75;4981611;28;20046;-64
2022/04/04 03:05:31;;;;;;;17.95;8.23;;;;;;;5.12;96.23;101450.38;4984567;28;20026;-65
2022/04/04 03:07:56;;;;;;;12.52;7.70;;;;;;;5.14;95.95;101429.34;5009695;28;20038;-65
2022/04/04 03:10:22;;;;;;;12.27;7.30;;;;;;;5.14;95.69;101438.13;4983706;28;20037;-65
2022/04/04 03:12:50;;;;;;;12.93;7.65;;;;;;;5.19;96.15;101448.53;4988204;28;20063;-65
2022/04/04 03:15:21;;;;;;;16.92;8.10;;;;;;;5.18;95.88;101437.19;4982845;28;20473;-65
2022/04/04 03:17:51;;;;;;;18.27;8.63;;;;;;;5.20;96.13;101429.28;4975018;28;20359;-64
2022/04/04 03:20:19;;;;;;;15.95;8.52;;;;;;;5.18;96.08;101431.94;4989345;28;20100;-65
2022/04/04 03:22:50;;;;;;;20.48;8.93;;;;;;;5.20;96.55;101434.53;4982709;28;20044;-65
2022/04/04 03:25:17;;;;;;;13.90;7.60;;;;;;;5.21;96.64;101421.38;4992100;28;20069;-65
2022/04/04 03:27:43;;;;;;;14.52;7.88;;;;;;;5.24;95.91;101418.72;4994470;28;20034;-66
2022/04/04 03:30:11;;;;;;;18.42;8.00;;;;;;;5.22;95.92;101398.63;4991520;28;20118;-65
2022/04/04 03:32:37;;;;;;;16.48;8.38;;;;;;;5.27;96.43;101401.19;4991679;28;20057;-65
2022/04/04 03:35:04;;;;;;;14.52;8.05;;;;;;;5.26;95.96;101392.44;4992515;28;20124;-65
2022/04/04 03:37:31;;;;;;;16.23;7.90;;;;;;;5.27;95.50;101394.19;4986334;28;20033;-66
2022/04/04 03:39:57;;;;;;;15.65;8.18;;;;;;;5.28;95.79;101381.91;4991778;28;20037;-66
2022/04/04 03:42:22;;;;;;;13.73;7.97;;;;;;;5.25;96.39;101382.81;4993030;28;20034;-65
2022/04/04 03:44:48;;;;;;;16.15;8.85;;;;;;;5.28;95.20;101376.66;4991258;28;20037;-65
2022/04/04 03:47:13;;;;;;;16.23;7.57;;;;;;;5.30;95.63;101374.91;4989156;28;20032;-66
2022/04/04 03:49:39;;;;;;;17.67;8.18;;;;;;;5.29;95.26;101357.41;5006201;28;20401;-66
2022/04/04 03:52:05;;;;;;;14.95;8.25;;;;;;;5.29;95.79;101360.88;5007781;28;20030;-66
2022/04/04 03:54:31;;;;;;;16.10;8.18;;;;;;;5.30;94.63;101346.88;4993600;28;20498;-65
2022/04/04 03:56:57;;;;;;;14.18;7.65;;;;;;;5.36;93.74;101352.03;4993302;28;20038;-64
2022/04/04 03:59:23;;;;;;;18.42;8.00;;;;;;;5.41;93.76;101344.94;4993442;28;20108;-64
2022/04/04 04:01:48;;;;;;;15.48;7.53;;;;;;;5.43;93.43;101339.66;4973253;28;20385;-65
2022/04/04 04:04:13;;;;;;;13.45;8.35;;;;;;;5.44;92.40;101335.31;4990750;28;20121;-64
2022/04/04 04:06:39;;;;;;;17.10;7.15;;;;;;;5.38;92.53;101318.75;4993065;28;20045;-64
2022/04/04 04:09:04;;;;;;;15.60;7.95;;;;;;;5.41;93.00;101328.34;4992340;28;20034;-66
2022/04/04 04:11:29;;;;;;;12.95;7.43;;;;;;;5.44;92.67;101311.66;4992944;28;20034;-66
2022/04/04 04:13:55;;;;;;;15.85;7.30;;;;;;;5.45;92.46;101311.63;4992322;28;20129;-66
2022/04/04 04:16:23;;;;;;;15.50;7.47;;;;;;;5.43;92.14;101308.16;4987099;28;20149;-64
2022/04/04 04:18:48;;;;;;;11.35;7.00;;;;;;;5.43;92.77;101312.53;4978371;28;20056;-65
2022/04/04 04:21:14;;;;;;;15.63;7.53;;;;;;;5.43;91.86;101302.03;4988636;28;20058;-64
2022/04/04 04:23:41;;;;;;;11.20;6.88;;;;;;;5.40;91.85;101298.56;4989917;28;20077;-64
2022/04/04 04:26:08;;;;;;;16.27;7.55;;;;;;;5.46;91.30;101292.34;4988815;28;20041;-64
2022/04/04 04:28:34;;;;;;;13.77;7.10;;;;;;;5.52;90.69;101286.13;4992788;28;20081;-65
2022/04/04 04:31:00;;;;;;;13.82;7.20;;;;;;;5.48;90.98;101273.94;4991065;28;20034;-65
2022/04/04 04:33:25;;;;;;;14.95;7.05;;;;;;;5.49;91.44;101265.16;4990599;28;20034;-65
2022/04/04 04:35:51;;;;;;;16.70;7.90;;;;;;;5.48;90.87;101252.91;4989803;28;20386;-65
2022/04/04 04:38:16;;;;;;;12.27;6.78;;;;;;;5.48;91.04;101258.19;4990250;28;20093;-65
2022/04/04 04:40:42;;;;;;;13.95;6.38;;;;;;;5.50;90.47;101272.13;5001240;28;20034;-65
2022/04/04 04:43:08;;;;;;;14.18;6.90;;;;;;;5.54;90.33;101247.56;4990862;28;21459;-65
2022/04/04 04:45:34;;;;;;;14.35;7.43;;;;;;;5.60;89.89;101251.84;4968930;28;20037;-65
2022/04/04 04:47:59;;;;;;;11.85;7.07;;;;;;;5.57;89.33;101250.13;4988082;28;20034;-64
2022/04/04 04:50:26;;;;;;;18.55;6.43;;;;;;;5.57;89.81;101224.72;4991208;28;20037;-65
2022/04/04 04:52:52;;;;;;;11.52;6.25;;;;;;;5.60;88.96;101221.19;4992154;28;20053;-65
2022/04/04 04:55:18;;;;;;;14.27;6.82;;;;;;;5.60;88.98;101223.81;4987723;28;20030;-65
2022/04/04 04:57:45;;;;;;;11.23;6.45;;;;;;;5.56;89.29;101230.00;4990313;28;20128;-64
2022/04/04 05:00:15;;;;;;;10.57;6.35;;;;;;;5.57;88.49;101208.09;4989563;28;20030;-64
2022/04/04 05:02:40;;;;;;;15.45;7.30;;;;;;;5.57;88.85;101201.06;4965248;28;20030;-65
2022/04/04 05:05:06;;;;;;;16.08;6.50;;;;;;;5.62;87.89;101187.84;4986081;28;20034;-64
2022/04/04 05:07:32;;;;;;;13.02;6.72;;;;;;;5.62;88.72;101177.34;4992179;28;20057;-65
2022/04/04 05:09:57;;;;;;;16.38;6.93;;;;;;;5.62;88.29;101174.72;5003074;28;20109;-66
2022/04/04 05:12:23;;;;;;;14.60;7.05;;;;;;;5.63;88.33;101186.13;4986642;28;20548;-66
2022/04/04 05:14:49;;;;;;;13.70;6.97;;;;;;;5.61;88.27;101167.72;4984933;28;20026;-66
2022/04/04 05:17:14;;;;;;;13.68;7.00;;;;;;;5.64;88.78;101178.19;4989552;28;20035;-66
2022/04/04 05:19:40;;;;;;;11.88;7.20;;;;;;;5.64;88.73;101165.06;4988946;28;20023;-65
2022/04/04 05:22:05;;;;;;;12.38;6.97;;;;;;;5.69;88.51;101165.84;4989323;28;20043;-64
2022/04/04 05:24:31;;;;;;;13.95;7.20;;;;;;;5.69;87.82;101167.59;4982010;28;20039;-65
2022/04/04 05:26:57;;;;;;;12.90;7.45;;;;;;;5.70;88.43;101148.31;4987457;28;20042;-65
2022/04/04 05:29:26;;;;;;;15.90;6.93;;;;;;;5.69;88.38;101147.44;4991078;28;20030;-65
2022/04/04 05:31:52;;;;;;;13.68;8.10;;;;;;;5.68;87.88;101147.47;4991691;28;20069;-65
2022/04/04 05:34:17;;;;;;;14.50;7.93;;;;;;;5.67;88.53;101138.72;4987557;28;20034;-66
2022/04/04 05:36:43;;;;;;;12.75;7.80;;;;;;;5.66;88.25;101123.84;4991380;28;20080;-65
2022/04/04 05:39:08;;;;;;;13.23;8.18;;;;;;;5.63;88.39;101128.31;4986919;28;20159;-65
2022/04/04 05:41:36;;;;;;;15.45;8.20;;;;;;;5.60;89.24;101125.72;4978631;28;20117;-65
2022/04/04 05:44:03;;;;;;;15.30;8.73;;;;;;;5.54;90.67;101127.59;4982670;28;20109;-65
2022/04/04 05:46:28;;;;;;;15.20;8.93;;;;;;;5.45;91.70;101122.50;5001315;28;20859;-66
2022/04/04 05:48:53;;;;;;;16.20;9.35;;;;;;;5.39;93.05;101120.84;4988419;28;20492;-64
2022/04/04 05:51:19;;;;;;;13.18;8.48;;;;;;;5.33;94.29;101106.97;5006746;28;20438;-64
2022/04/04 05:53:45;;;;;;;16.08;9.82;;;;;;;5.24;95.45;101119.41;5007164;28;20116;-64
2022/04/04 05:56:10;;;;;;;16.38;9.55;;;;;;;5.19;96.87;101125.59;4992067;28;20181;-64
2022/04/04 05:58:40;;;;;;;18.02;9.45;;;;;;;5.12;97.10;101106.47;5006671;28;20478;-64
2022/04/04 06:01:08;;;;;;;21.23;9.50;;;;;;;5.07;97.33;101103.06;4991763;28;20022;-64
2022/04/04 06:03:33;;;;;;;16.55;9.90;;;;;;;5.04;98.71;101129.38;4992110;28;20026;-64
2022/04/04 06:06:00;;;;;;;17.30;9.95;;;;;;;5.03;99.23;101125.03;4990773;28;20038;-66
2022/04/04 06:08:26;;;;;;;17.75;10.27;;;;;;;4.99;99.75;101120.72;4992765;28;20065;-65
2022/04/04 06:10:52;;;;;;;18.63;10.20;;;;;;;4.99;100.00;101110.22;4974726;28;20513;-66
2022/04/04 06:13:19;;;;;;;14.93;8.48;;;;;;;4.98;100.00;101090.13;4982520;28;20033;-65
2022/04/04 06:15:45;;;;;;;14.23;8.88;;;;;;;4.99;100.00;101087.47;4995411;28;20026;-66
2022/04/04 06:18:12;;;;;;;14.90;8.57;;;;;;;5.01;100.00;101084.81;4995121;28;20112;-66
2022/04/04 06:20:38;;;;;;;14.73;8.68;;;;;;;5.04;100.00;101093.50;4995366;28;20050;-64
2022/04/04 06:23:04;;;;;;;14.82;8.85;;;;;;;5.04;100.00;101090.03;5008752;28;20085;-64
2022/04/04 06:25:30;;;;;;;13.80;7.85;;;;;;;5.08;100.00;101081.19;4977528;28;20062;-65
2022/04/04 06:27:55;;;;;;;15.35;8.20;;;;;;;5.08;100.00;101086.44;4994900;28;20041;-65
2022/04/04 06:30:22;;;;;;;15.50;8.70;;;;;;;5.12;100.00;101074.97;4977407;28;20043;-65
2022/04/04 06:32:48;;;;;;;15.45;8.32;;;;;;;5.12;100.00;101072.34;4995387;28;20041;-63
2022/04/04 06:35:14;;;;;;;20.92;9.40;;;;;;;5.15;100.00;101063.56;4994675;28;20038;-66
2022/04/04 06:37:41;;;;;;;19.17;8.95;;;;;;;5.21;100.00;101077.44;4994798;28;20055;-64
2022/04/04 06:40:08;;;;;;;17.70;8.43;;;;;;;5.24;100.00;101061.63;4976937;28;20045;-65
2022/04/04 06:42:35;;;;;;;17.77;8.68;;;;;;;5.29;100.00;101048.41;4993515;28;20030;-65
2022/04/04 06:45:01;;;;;;;14.63;8.13;;;;;;;5.29;100.00;101042.28;4994515;28;20478;-66
2022/04/04 06:47:26;;;;;;;16.73;7.47;;;;;;;5.34;100.00;101046.53;4994702;28;20486;-64
2022/04/04 06:49:52;;;;;;;11.75;6.45;;;;;;;5.39;100.00;101035.97;4994050;28;20169;-64
2022/04/04 06:52:19;;;;;;;8.23;4.00;;;;;;;5.47;97.16;101004.28;4994525;28;20035;-66
2022/04/04 06:54:44;;;;;;;10.07;3.88;;;;;;;5.56;96.03;101020.72;4977507;28;20109;-65
2022/04/04 06:57:10;;;;;;;8.48;3.65;;;;;;;5.60;94.85;101018.03;4993541;28;20117;-65
2022/04/04 06:59:35;;;;;;;11.68;4.00;;;;;;;5.63;95.56;101015.34;4994571;28;20504;-65
2022/04/04 07:02:00;;;;;;;10.32;3.80;;;;;;;5.63;95.41;100995.19;4994058;28;20474;-65
2022/04/04 07:04:26;;;;;;;8.23;3.47;;;;;;;5.60;93.62;100955.84;4993363;28;20038;-65
2022/04/04 07:06:51;;;;;;;9.88;3.55;;;;;;;5.54;93.27;100998.88;5008880;28;20032;-66
2022/04/04 07:09:16;;;;;;;6.78;2.90;;;;;;;5.47;95.42;101014.78;4979147;28;20048;-66
2022/04/04 07:11:42;;;;;;;8.52;3.97;;;;;;;5.37;97.03;101022.88;4994135;28;20128;-66
2022/04/04 07:14:09;;;;;;;10.30;4.00;;;;;;;5.29;98.28;101027.38;4994490;28;20069;-64
2022/04/04 07:16:34;;;;;;;7.18;3.83;;;;;;;5.22;98.89;101008.28;4993915;28;20070;-65
2022/04/04 07:19:00;;;;;;;9.23;4.10;;;;;;;5.15;100.00;101006.66;4993135;28;20470;-65
2022/04/04 07:21:25;;;;;;;11.48;4.45;;;;;;;5.07;100.00;100988.44;4993687;28;20196;-65
2022/04/04 07:23:50;;;;;;;10.45;4.22;;;;;;;5.02;100.00;101011.28;4994245;28;20034;-65
2022/04/04 07:26:19;;;;;;;11.95;4.60;;;;;;;5.01;100.00;100996.44;4976368;28;20430;-65
2022/04/04 07:28:46;;;;;;;9.60;4.85;;;;;;;4.92;100.00;100989.63;4993240;28;20033;-67
2022/04/04 07:31:12;;;;;;;13.70;4.93;;;;;;;4.91;100.00;100994.88;4993921;28;20088;-64
2022/04/04 07:33:38;;;;;;;11.48;4.68;;;;;;;4.95;100.00;100983.44;4982429;28;20031;-65
2022/04/04 07:36:03;;;;;;;13.05;4.80;;;;;;;4.93;100.00;100954.56;4974394;28;20451;-64
2022/04/04 07:38:29;;;;;;;11.82;5.50;;;;;;;4.92;100.00;100968.63;4977989;28;20504;-65
2022/04/04 07:40:54;;;;;;;12.85;5.30;;;;;;;4.91;100.00;100959.00;4988970;28;20058;-66
2022/04/04 07:43:19;;;;;;;10.95;5.03;;;;;;;4.89;100.00;100941.56;4995843;28;20048;-65
2022/04/04 07:45:45;;;;;;;13.32;6.40;;;;;;;4.87;100.00;100973.09;4993561;28;20476;-66
2022/04/04 07:48:11;;;;;;;12.35;5.85;;;;;;;4.86;100.00;100941.59;4988149;28;20045;-66
2022/04/04 07:50:36;;;;;;;19.88;7.00;;;;;;;4.82;100.00;100950.44;4985443;28;20034;-65
2022/04/04 07:53:02;;;;;;;15.05;6.07;;;;;;;4.84;100.00;100948.66;4993103;28;20026;-64
2022/04/04 07:55:28;;;;;;;13.43;5.45;;;;;;;4.81;100.00;100939.09;4993001;28;20077;-65
2022/04/04 07:57:53;;;;;;;14.57;5.70;;;;;;;4.83;100.00;100939.06;4979630;28;20518;-65
2022/04/04 08:00:21;;;;;;;12.05;6.28;;;;;;;4.86;100.00;100931.13;4992033;28;20022;-65
2022/04/04 08:02:47;;;;;;;17.60;5.97;;;;;;;4.89;100.00;100923.19;4993320;28;20026;-65
2022/04/04 08:05:13;;;;;;;13.73;6.57;;;;;;;4.88;100.00;100927.56;4992980;28;20041;-67
2022/04/04 08:07:40;;;;;;;10.85;5.40;;;;;;;4.87;100.00;100924.97;4992890;28;20041;-67
2022/04/04 08:10:07;;;;;;;15.85;6.30;;;;;;;4.86;100.00;100923.25;4990172;28;20034;-65
2022/04/04 08:12:33;;;;;;;14.18;6.13;;;;;;;4.81;100.00;100886.63;4987743;28;20552;-67
2022/04/04 08:14:58;;;;;;;13.32;5.95;;;;;;;4.81;100.00;100914.59;4985893;28;20030;-67
2022/04/04 08:17:24;;;;;;;13.48;6.13;;;;;;;4.87;100.00;100885.63;4992324;28;20026;-66
2022/04/04 08:19:50;;;;;;;12.77;5.93;;;;;;;4.87;100.00;100899.63;4999148;28;20030;-65
2022/04/04 08:22:16;;;;;;;13.18;6.47;;;;;;;4.89;100.00;100912.69;4989509;28;20395;-64
2022/04/04 08:24:41;;;;;;;16.23;6.93;;;;;;;4.87;100.00;100901.34;4993377;28;20374;-67
2022/04/04 08:27:10;;;;;;;16.65;6.07;;;;;;;4.86;100.00;100891.75;4992376;28;20559;-67
2022/04/04 08:29:35;;;;;;;20.00;7.13;;;;;;;4.88;100.00;100906.56;4975195;28;20049;-66
2022/04/04 08:32:01;;;;;;;13.43;6.18;;;;;;;4.90;100.00;100891.66;4992460;28;20038;-66
2022/04/04 08:34:28;;;;;;;18.63;6.68;;;;;;;4.91;100.00;100882.91;4976566;28;20092;-68
2022/04/04 08:36:54;;;;;;;12.75;6.82;;;;;;;4.90;100.00;100854.09;4982272;28;20031;-66
2022/04/04 08:39:20;;;;;;;12.98;5.88;;;;;;;4.93;100.00;100891.59;4987156;28;20049;-66
2022/04/04 08:41:45;;;;;;;14.60;5.53;;;;;;;4.94;100.00;100879.34;4982629;28;20030;-68
2022/04/04 08:44:14;;;;;;;15.75;6.10;;;;;;;4.92;100.00;100874.16;4991767;28;20030;-67
2022/04/04 08:46:41;;;;;;;12.73;5.18;;;;;;;4.96;100.00;100887.19;5007736;28;20025;-67
2022/04/04 08:49:06;;;;;;;12.27;6.30;;;;;;;4.99;100.00;100867.00;5012414;28;20365;-67
2022/04/04 08:51:33;;;;;;;15.02;6.05;;;;;;;5.06;100.00;100863.38;5010920;28;20026;-67
2022/04/04 08:53:58;;;;;;;16.45;5.70;;;;;;;5.06;100.00;100868.59;4994079;28;20026;-66
2022/04/04 08:56:25;;;;;;;18.02;6.10;;;;;;;5.08;100.00;100866.78;4993404;28;20493;-66
2022/04/04 08:58:52;;;;;;;15.60;5.22;;;;;;;5.11;100.00;100852.75;5024553;28;20392;-67
2022/04/04 09:01:19;;;;;;;16.95;5.72;;;;;;;5.16;100.00;100835.13;4992059;28;20026;-66
2022/04/04 09:03:49;;;;;;;17.65;5.60;;;;;;;5.19;100.00;100826.31;4992031;28;20030;-67
2022/04/04 09:06:15;;;;;;;12.40;4.80;;;;;;;5.21;100.00;100825.38;4993088;28;20041;-67
2022/04/04 09:08:46;;;;;;;16.35;5.20;;;;;;;5.23;100.00;100852.47;4993189;28;20026;-67
2022/04/04 09:11:13;;;;;;;21.35;5.10;;;;;;;5.26;100.00;100822.66;5012337;28;20038;-67
2022/04/04 09:13:39;;;;;;;13.60;4.70;;;;;;;5.30;100.00;100839.22;5004119;28;20477;-67
2022/04/04 09:16:06;;;;;;;15.30;5.45;;;;;;;5.30;100.00;100839.22;4992352;28;20041;-67
2022/04/04 09:18:39;;;;;;;11.55;4.97;;;;;;;5.33;100.00;100826.00;4992502;28;20041;-66
2022/04/04 09:21:17;;;;;;;17.33;4.97;;;;;;;5.38;100.00;100840.78;4991961;28;20050;-67
2022/04/04 09:23:43;;;;;;;14.80;5.10;;;;;;;5.44;100.00;100828.41;4992219;28;20050;-68
2022/04/04 09:26:26;;;;;;;15.98;4.80;;;;;;;5.45;100.00;100811.72;4991443;28;20098;-67
2022/04/04 09:28:52;;;;;;;14.90;5.18;;;;;;;5.47;100.00;100818.66;4989483;28;20142;-68
2022/04/04 09:31:17;;;;;;;20.55;5.30;;;;;;;5.52;100.00;100818.56;4988784;28;20478;-68
2022/04/04 09:33:43;;;;;;;13.38;4.47;;;;;;;5.54;100.00;100814.13;5006128;28;20477;-68
2022/04/04 09:36:09;;;;;;;16.50;4.10;;;;;;;5.53;100.00;100802.75;4991416;28;20030;-68
2022/04/04 09:38:35;;;;;;;10.05;4.00;;;;;;;5.55;100.00;100807.97;5006861;28;20027;-68
2022/04/04 09:41:17;;;;;;;11.93;3.47;;;;;;;5.55;100.00;100821.97;4974609;28;20022;-69
2022/04/04 09:43:56;;;;;;;13.73;4.45;;;;;;;5.52;100.00;100811.53;4995692;28;20089;-68
2022/04/04 09:46:23;;;;;;;13.48;4.10;;;;;;;5.54;100.00;100808.88;5010127;28;20122;-68
2022/04/04 09:49:06;;;;;;;12.27;3.58;;;;;;;5.50;100.00;100797.59;4995175;28;20544;-69
2022/04/04 09:51:36;;;;;;;13.45;4.00;;;;;;;5.51;100.00;100798.44;4978169;28;20033;-68
2022/04/04 09:54:06;;;;;;;10.98;4.00;;;;;;;5.54;100.00;100803.63;4997032;28;20064;-68
2022/04/04 09:56:32;;;;;;;13.20;3.80;;;;;;;5.53;100.00;100796.66;4994730;28;20030;-68
2022/04/04 09:58:59;;;;;;;16.25;4.80;;;;;;;5.55;100.00;100798.34;4992457;28;20154;-69
2022/04/04 10:01:25;;;;;;;11.45;4.40;;;;;;;5.57;100.00;100804.41;4972401;28;20018;-71
2022/04/04 10:03:53;;;;;;;11.85;4.45;;;;;;;5.60;100.00;100785.09;4992451;28;20486;-69
2022/04/04 10:06:20;;;;;;;16.00;4.32;;;;;;;5.61;100.00;100786.81;4985116;28;20041;-69
2022/04/04 10:08:51;;;;;;;17.05;4.93;;;;;;;5.65;100.00;100772.72;4993782;28;20440;-70
2022/04/04 10:11:17;;;;;;;10.57;4.07;;;;;;;5.67;100.00;100764.78;4986100;28;20097;-69
2022/04/04 10:13:44;;;;;;;14.23;3.92;;;;;;;5.72;100.00;100760.28;4994685;28;20037;-70
2022/04/04 10:16:11;;;;;;;14.95;4.40;;;;;;;5.78;100.00;100772.38;4995258;28;20061;-69
2022/04/04 10:18:37;;;;;;;14.50;4.28;;;;;;;5.81;100.00;100753.91;4994897;28;20022;-70
2022/04/04 10:21:03;;;;;;;11.98;3.92;;;;;;;5.86;100.00;100768.66;5001513;28;20050;-70
2022/04/04 10:23:30;;;;;;;12.43;3.80;;;;;;;5.91;100.00;100758.03;4993318;28;20048;-70
2022/04/04 10:25:58;;;;;;;15.23;3.67;;;;;;;5.91;100.00;100763.28;4990626;28;20038;-71
2022/04/04 10:28:27;;;;;;;13.35;3.80;;;;;;;5.96;100.00;100707.94;4983236;28;20030;-71
2022/04/04 10:30:57;;;;;;;16.45;4.18;;;;;;;6.02;100.00;100757.75;4977225;28;20478;-71
2022/04/04 10:33:24;;;;;;;11.88;3.72;;;;;;;6.05;100.00;100755.91;4977396;28;20033;-71
2022/04/04 10:36:05;;;;;;;10.55;3.55;;;;;;;6.07;100.00;100751.47;4978982;28;20090;-72
2022/04/04 10:38:36;;;;;;;10.73;3.63;;;;;;;6.11;100.00;100746.13;4993844;28;20031;-72
2022/04/04 10:41:07;;;;;;;15.75;3.80;;;;;;;6.15;100.00;100746.00;5007948;28;20021;-71
2022/04/04 10:43:43;;;;;;;10.45;3.60;;;;;;;6.18;100.00;100755.56;4983264;28;20097;-72
2022/04/04 10:46:11;;;;;;;9.75;3.75;;;;;;;6.21;100.00;100751.09;4985074;28;20030;-71
2022/04/04 10:48:41;;;;;;;12.73;3.78;;;;;;;6.25;100.00;100733.44;4994293;28;20478;-73
2022/04/04 10:51:12;;;;;;;13.90;3.58;;;;;;;6.32;100.00;100740.25;4993055;28;20026;-73
2022/04/04 10:53:57;;;;;;;10.55;3.15;;;;;;;6.36;100.00;100717.38;5001308;28;20073;-72
2022/04/04 10:56:24;;;;;;;10.00;3.15;;;;;;;6.33;100.00;100662.22;4993770;28;20053;-72
2022/04/04 10:59:15;;;;;;;11.13;3.00;;;;;;;6.31;100.00;100733.28;5009178;28;20037;-72
2022/04/04 11:01:42;;;;;;;17.70;4.05;;;;;;;6.37;100.00;100721.72;4986582;28;20029;-72
2022/04/04 11:04:22;;;;;;;14.32;3.42;;;;;;;6.35;100.00;100728.78;4977490;28;20070;-74
2022/04/04 11:09:51;;;;;;;10.13;2.65;;;;;;;6.37;100.00;100714.69;4935442;29;20051;-74
2022/04/04 11:12:18;;;;;;;10.18;2.83;;;;;;;6.40;100.00;100717.22;4932058;29;20118;-74
2022/04/04 11:14:47;;;;;;;10.45;2.78;;;;;;;6.43;100.00;100711.00;4944959;28;20374;-73
2022/04/04 11:17:17;;;;;;;8.02;2.70;;;;;;;6.47;100.00;100673.19;4993432;28;20130;-72
2022/04/04 11:19:46;;;;;;;11.85;3.05;;;;;;;6.48;100.00;100690.69;5008587;28;20026;-72
2022/04/04 11:22:22;;;;;;;9.15;2.50;;;;;;;6.50;100.00;100688.88;4975245;28;20074;-69
2022/04/04 11:24:51;;;;;;;10.93;2.78;;;;;;;6.55;100.00;100680.84;4993786;28;20371;-74